NY33 weather

Hidden Hills Ranch Airport
Palmyra, New York, United States

Public forecast

Using degrees Fahrenheit for public forecast. Weather courtesy of forecast.io.

METAR (pilot weather report)

Closest report is Greater Rochester International Airport, 19.0 nm (35.2 km) W. Retrieved 2019/07/17 17:17 UTC (22 minutes ago):

KROC 171717Z 22006KT 5SM -RA BR SCT010 BKN055 OVC080 24/22 A2993

TAF (pilot weather forecast)

Closest forecast is Greater Rochester International Airport, 19.0 nm (35.2 km) W. Retrieved 2019/07/17 12:22 UTC (5 hours ago):

TAF KROC 171120Z 1712/1812 23004KT P6SM FEW070 OVC090 TEMPO 1712/1716 4SM -SHRA BR OVC025 FM172000 13005KT P6SM OVC030 FM172300 10004KT P6SM OVC035 FM180200 07004KT P6SM BKN025 FM180700 04004KT P6SM BKN015